Time;durP1;ratioP1;P1;durP2;ratioP2;P2;SDS_P1;SDS_P2;PMS_P1;PMS_P2;Temp;Humidity;BMP_temperature;BMP_pressure;BME280_temperature;BME280_humidity;BME280_pressure;Samples;Min_cycle;Max_cycle;Signal;HPM_P1;HPM_P2
2023/05/17 00:01:48;;;;;;;2.85;2.38;;;;;;;13.68;nan;-11684.63;5030747;28;20168;-71
2023/05/17 00:04:13;;;;;;;5.72;2.60;;;;;;;13.32;nan;-12966.66;5030321;28;20269;-70
2023/05/17 00:06:39;;;;;;;5.53;3.05;;;;;;;13.60;nan;-12326.81;5031175;28;20175;-70
2023/05/17 00:09:23;;;;;;;3.70;2.50;;;;;;;13.51;nan;-12968.53;5031031;28;20253;-71
2023/05/17 00:11:49;;;;;;;3.45;2.58;;;;;;;13.42;nan;-12325.22;5030717;28;20220;-72
2023/05/17 00:14:14;;;;;;;3.17;2.38;;;;;;;13.40;nan;-13609.72;5031222;28;20258;-70
2023/05/17 00:16:40;;;;;;;3.72;2.20;;;;;;;13.38;nan;-14251.66;5031583;28;20206;-71
2023/05/17 00:19:05;;;;;;;4.72;2.85;;;;;;;13.37;nan;-15535.47;5031671;28;20592;-71
2023/05/17 00:21:31;;;;;;;8.02;2.47;;;;;;;13.25;nan;-16175.50;5031553;28;20172;-69
2023/05/17 00:24:46;;;;;;;3.03;2.40;;;;;;;13.20;nan;-16816.19;5037177;28;20176;-69
2023/05/17 00:28:02;;;;;;;4.47;2.50;;;;;;;13.21;nan;-17136.94;5031121;28;20567;-69
2023/05/17 00:31:17;;;;;;;4.30;2.60;;;;;;;13.14;nan;-18097.63;5031137;28;20677;-70
2023/05/17 00:34:33;;;;;;;5.28;3.25;;;;;;;13.11;nan;-17776.53;5031793;28;20160;-71
2023/05/17 00:37:48;;;;;;;5.10;3.00;;;;;;;13.19;nan;-18419.06;5034874;28;20187;-70
2023/05/17 00:41:05;;;;;;;4.13;2.30;;;;;;;13.37;nan;-18101.63;5033941;28;20631;-70
2023/05/17 05:11:49;;;;;;;8.45;4.85;;;;;;;15.64;nan;-20715.97;4968123;23;23644;-65
2023/05/17 05:14:14;;;;;;;8.82;5.05;;;;;;;15.53;nan;-20070.41;4997742;28;20228;-65
2023/05/17 05:16:40;;;;;;;8.25;5.07;;;;;;;15.82;nan;-18467.41;4994682;28;20191;-66
2023/05/17 05:19:07;;;;;;;8.95;4.65;;;;;;;15.51;nan;-18461.75;4994958;28;20219;-65
2023/05/17 05:21:33;;;;;;;9.38;5.53;;;;;;;15.73;nan;-19752.84;4993628;28;20212;-67
2023/05/17 05:23:58;;;;;;;13.25;5.75;;;;;;;15.78;nan;-19753.97;4994407;28;20655;-64
2023/05/17 05:26:23;;;;;;;9.43;5.30;;;;;;;15.78;nan;-20397.31;4994653;28;20183;-64
2023/05/17 05:28:49;;;;;;;9.20;5.07;;;;;;;15.56;nan;-21357.19;4994057;28;20208;-67
2023/05/17 05:31:15;;;;;;;9.13;4.72;;;;;;;15.45;nan;-20390.25;4994635;28;20188;-68
2023/05/17 05:33:41;;;;;;;8.20;5.18;;;;;;;15.45;nan;-20390.34;4994227;28;20161;-67
2023/05/17 05:36:07;;;;;;;10.30;5.28;;;;;;;15.24;nan;-21671.00;4993926;28;20188;-66
2023/05/17 05:38:32;;;;;;;9.80;5.50;;;;;;;15.69;nan;-21038.53;4994219;28;20177;-66
2023/05/17 05:40:58;;;;;;;9.82;4.50;;;;;;;15.77;nan;-17178.84;4994394;28;20180;-65
2023/05/17 05:43:23;;;;;;;7.50;4.40;;;;;;;15.74;nan;-18787.84;4994163;28;20180;-69
2023/05/17 05:45:48;;;;;;;9.77;5.20;;;;;;;15.89;nan;-17824.78;4993762;28;20272;-67
2023/05/17 05:48:14;;;;;;;8.77;5.13;;;;;;;15.28;nan;-18779.06;4992666;28;20160;-67
2023/05/17 05:50:42;;;;;;;8.00;4.68;;;;;;;15.55;nan;-20070.84;4993687;28;20196;-66
2023/05/17 05:53:09;;;;;;;7.40;4.60;;;;;;;15.39;nan;-21031.81;4994233;28;20631;-67
2023/05/17 05:55:34;;;;;;;10.82;4.35;;;;;;;14.82;nan;-21982.16;4976921;28;20638;-65
2023/05/17 05:58:00;;;;;;;8.73;4.72;;;;;;;14.56;nan;-22938.59;4976718;28;20231;-66
2023/05/17 06:00:25;;;;;;;8.75;5.03;;;;;;;14.32;nan;-23252.88;4994483;28;20180;-65
2023/05/17 06:02:52;;;;;;;10.65;5.45;;;;;;;14.83;nan;-23587.28;4994400;28;20628;-67
2023/05/17 06:05:18;;;;;;;8.93;5.47;;;;;;;14.92;nan;-23268.75;4994028;28;20369;-66
2023/05/17 06:07:43;;;;;;;8.95;5.72;;;;;;;14.35;nan;-23574.31;4994382;28;20169;-67
2023/05/17 06:10:09;;;;;;;12.00;5.47;;;;;;;13.80;nan;-23880.03;4994020;28;20734;-67
2023/05/17 06:12:35;;;;;;;10.07;5.78;;;;;;;13.61;nan;-23874.81;4994154;28;20220;-66
2023/05/17 06:15:00;;;;;;;8.05;5.00;;;;;;;13.97;nan;-23564.31;4994569;28;20179;-66
2023/05/17 06:17:25;;;;;;;8.85;5.03;;;;;;;14.23;nan;-23250.63;4993795;28;20169;-68
2023/05/17 06:19:51;;;;;;;11.38;5.28;;;;;;;14.44;nan;-22935.34;4993773;28;20632;-67
2023/05/17 06:22:16;;;;;;;7.63;5.07;;;;;;;14.51;nan;-22616.50;4994392;28;20181;-67
2023/05/17 06:24:42;;;;;;;10.32;5.38;;;;;;;14.57;nan;-21976.31;4993837;28;20173;-68
2023/05/17 06:27:07;;;;;;;9.95;5.15;;;;;;;15.01;nan;-21344.47;4993791;28;20276;-68
2023/05/17 06:29:33;;;;;;;12.57;5.53;;;;;;;14.87;nan;-21341.34;4993873;28;20274;-66
2023/05/17 06:31:58;;;;;;;8.98;5.72;;;;;;;14.75;nan;-21980.56;4991844;28;20199;-68
2023/05/17 06:34:25;;;;;;;16.05;6.05;;;;;;;15.29;nan;-21672.22;4993598;28;20175;-68
2023/05/17 06:36:50;;;;;;;9.57;5.80;;;;;;;15.17;nan;-18777.06;4993554;28;20302;-66
2023/05/17 06:39:16;;;;;;;10.90;5.38;;;;;;;15.68;nan;-19108.47;4994123;28;20683;-66
2023/05/17 06:41:41;;;;;;;11.27;5.63;;;;;;;16.19;nan;-16863.44;4993439;28;20564;-66
2023/05/17 06:44:07;;;;;;;10.10;5.75;;;;;;;16.03;nan;-14282.59;4993759;28;20181;-67
2023/05/17 06:46:32;;;;;;;10.40;5.57;;;;;;;16.10;nan;-15250.56;4993618;28;20196;-66
2023/05/17 06:48:57;;;;;;;13.07;5.72;;;;;;;17.02;nan;-12678.97;4993445;28;20211;-66
2023/05/17 06:51:23;;;;;;;10.10;5.05;;;;;;;17.06;nan;-10740.09;4993423;28;20222;-66
2023/05/17 06:53:49;;;;;;;9.93;5.43;;;;;;;16.98;nan;-10093.00;4992770;28;20212;-70
2023/05/17 06:56:15;;;;;;;9.02;5.43;;;;;;;17.30;nan;-10418.00;4975506;28;20188;-68
2023/05/17 06:58:40;;;;;;;11.60;5.47;;;;;;;17.22;nan;-10094.16;4975766;28;20240;-68
2023/05/17 07:01:05;;;;;;;7.72;4.97;;;;;;;17.38;nan;-8476.81;4975542;28;20274;-67
2023/05/17 07:03:31;;;;;;;12.18;5.10;;;;;;;17.14;nan;-10417.16;4992962;28;20200;-67
2023/05/17 07:05:56;;;;;;;13.27;6.15;;;;;;;17.20;nan;-11387.56;4991854;28;20236;-66
2023/05/17 07:08:21;;;;;;;8.57;5.55;;;;;;;16.82;nan;-12677.13;4992817;28;20259;-67
2023/05/17 07:10:50;;;;;;;9.30;5.53;;;;;;;16.91;nan;-12678.00;4992663;28;20589;-67
2023/05/17 07:13:16;;;;;;;10.98;5.13;;;;;;;16.91;nan;-13646.91;4992878;28;20223;-68
2023/05/17 07:15:41;;;;;;;8.63;5.28;;;;;;;16.86;nan;-13323.44;4992971;28;20546;-67
2023/05/17 07:18:07;;;;;;;10.90;5.70;;;;;;;16.74;nan;-15581.72;4992594;28;20222;-66
2023/05/17 07:20:32;;;;;;;8.88;5.28;;;;;;;16.67;nan;-16225.88;4993263;28;20175;-68
2023/05/17 07:22:58;;;;;;;12.77;5.82;;;;;;;16.36;nan;-17188.38;4992955;28;20580;-67
2023/05/17 07:25:23;;;;;;;11.82;6.03;;;;;;;16.18;nan;-18152.00;4993070;28;20173;-67
2023/05/17 07:27:49;;;;;;;9.70;5.43;;;;;;;16.22;nan;-18152.63;4993064;28;20176;-68
2023/05/17 07:30:15;;;;;;;9.40;5.00;;;;;;;15.99;nan;-18470.47;4993190;28;20221;-66
2023/05/17 07:32:40;;;;;;;9.45;5.45;;;;;;;16.08;nan;-19116.13;4992815;28;20184;-68
2023/05/17 07:35:06;;;;;;;10.13;5.72;;;;;;;16.29;nan;-19120.22;4992308;28;20612;-69
2023/05/17 07:37:32;;;;;;;9.95;5.85;;;;;;;15.90;nan;-20399.91;4992818;28;20627;-67
2023/05/17 07:39:57;;;;;;;10.98;5.60;;;;;;;15.43;nan;-21354.16;4993004;28;20172;-66
2023/05/17 07:42:22;;;;;;;11.75;5.70;;;;;;;15.39;nan;-21996.03;4991389;28;20292;-66
2023/05/17 07:44:48;;;;;;;9.85;6.10;;;;;;;15.35;nan;-22316.34;4992726;28;20200;-67
2023/05/17 07:47:15;;;;;;;10.55;5.32;;;;;;;14.94;nan;-23269.16;4992898;28;20231;-68
2023/05/17 07:49:40;;;;;;;12.90;6.35;;;;;;;15.15;nan;-24237.78;4992363;28;20378;-65
2023/05/17 07:52:07;;;;;;;10.48;5.90;;;;;;;14.48;nan;-24221.00;4991907;28;20593;-65
2023/05/17 07:54:33;;;;;;;11.32;6.65;;;;;;;13.95;nan;-24206.28;4992674;28;20250;-70
2023/05/17 07:56:59;;;;;;;12.98;7.15;;;;;;;14.11;nan;-24210.91;4995514;28;20315;-65
2023/05/17 07:59:24;;;;;;;14.07;7.30;;;;;;;14.30;nan;-24215.94;4992065;28;20283;-64
2023/05/17 08:01:50;;;;;;;12.43;7.30;;;;;;;14.15;nan;-24212.03;4972885;28;20180;-64
2023/05/17 08:04:16;;;;;;;14.55;7.38;;;;;;;13.80;nan;-24202.19;4977332;28;20185;-64
2023/05/17 08:06:44;;;;;;;19.80;7.28;;;;;;;13.96;nan;-24206.69;4992142;28;20188;-64
2023/05/17 08:09:10;;;;;;;13.82;6.95;;;;;;;14.08;nan;-24210.06;4991892;28;20690;-66
2023/05/17 08:11:36;;;;;;;17.35;7.93;;;;;;;14.30;nan;-24215.94;4974184;28;20177;-67
2023/05/17 08:14:01;;;;;;;13.43;7.25;;;;;;;14.38;nan;-24218.22;4991818;28;20691;-67
2023/05/17 08:16:27;;;;;;;20.83;8.20;;;;;;;14.51;nan;-24221.84;4991817;28;20180;-65
2023/05/17 08:18:52;;;;;;;15.93;8.05;;;;;;;14.51;nan;-24222.00;4991498;28;20267;-66
2023/05/17 08:21:19;;;;;;;14.30;7.45;;;;;;;14.48;nan;-24221.00;4992785;28;20339;-67
2023/05/17 08:23:45;;;;;;;13.77;7.28;;;;;;;14.48;nan;-24221.16;4991812;28;20188;-67
2023/05/17 08:26:11;;;;;;;15.55;7.13;;;;;;;14.47;nan;-24220.88;4991495;28;20169;-65
2023/05/17 08:28:37;;;;;;;16.00;7.57;;;;;;;14.34;nan;-24217.22;4991774;28;20157;-67
2023/05/17 08:31:03;;;;;;;14.30;7.07;;;;;;;14.44;nan;-24219.88;4991706;28;20196;-67
2023/05/17 08:33:29;;;;;;;16.15;8.02;;;;;;;14.23;nan;-24214.00;4991829;28;20169;-66
2023/05/17 08:35:56;;;;;;;13.93;7.40;;;;;;;14.43;nan;-24219.75;4991479;28;20672;-64
2023/05/17 08:38:22;;;;;;;19.98;8.63;;;;;;;14.22;nan;-24213.72;4991729;28;20620;-68
2023/05/17 08:40:54;;;;;;;16.63;7.53;;;;;;;14.27;nan;-24215.25;4991978;28;20184;-65
2023/05/17 08:43:21;;;;;;;16.48;7.65;;;;;;;14.48;nan;-24221.16;4974190;28;20263;-66
2023/05/17 08:45:48;;;;;;;14.27;7.60;;;;;;;14.35;nan;-24217.34;4991813;28;20311;-68
2023/05/17 08:48:16;;;;;;;14.50;7.65;;;;;;;14.37;nan;-24217.94;4974234;28;20710;-67
2023/05/17 08:50:43;;;;;;;18.77;8.35;;;;;;;14.45;nan;-24220.16;4991624;28;20252;-67
2023/05/17 08:53:09;;;;;;;16.15;7.28;;;;;;;14.20;nan;-24213.16;4990933;28;20627;-67
2023/05/17 08:55:36;;;;;;;16.45;8.13;;;;;;;14.54;nan;-24222.84;4992981;28;20176;-66
2023/05/17 08:58:04;;;;;;;16.70;7.65;;;;;;;14.23;nan;-24214.00;4995137;28;20177;-67
2023/05/17 09:00:32;;;;;;;15.13;7.60;;;;;;;14.57;nan;-24223.53;4994662;28;20773;-68
2023/05/17 09:03:02;;;;;;;18.10;8.25;;;;;;;14.61;nan;-24224.66;4995179;28;20686;-67
2023/05/17 09:05:28;;;;;;;14.57;7.68;;;;;;;14.25;nan;-24214.69;4995007;28;20173;-66
2023/05/17 09:07:55;;;;;;;14.05;7.88;;;;;;;14.26;nan;-24214.84;4994444;28;20231;-67
2023/05/17 09:10:20;;;;;;;15.95;7.45;;;;;;;14.41;nan;-24219.03;4994977;28;20204;-65
2023/05/17 09:12:46;;;;;;;17.75;8.88;;;;;;;14.45;nan;-24220.16;4973354;28;20225;-67
2023/05/17 09:15:15;;;;;;;12.52;7.53;;;;;;;14.14;nan;-24211.59;4974985;28;20753;-65
2023/05/17 09:17:41;;;;;;;14.20;7.32;;;;;;;14.45;nan;-24220.16;4975625;28;20173;-66
2023/05/17 09:20:08;;;;;;;12.75;7.40;;;;;;;14.42;nan;-24219.31;4974479;28;20177;-64
2023/05/17 09:22:35;;;;;;;15.57;7.38;;;;;;;14.19;nan;-24213.00;4976415;28;20181;-65
2023/05/17 09:25:03;;;;;;;13.90;7.95;;;;;;;13.99;nan;-24207.53;4974839;28;20178;-68
2023/05/17 09:27:31;;;;;;;14.90;8.15;;;;;;;14.34;nan;-24217.22;4974750;28;21004;-66
2023/05/17 09:29:57;;;;;;;13.95;8.13;;;;;;;14.07;nan;-24209.78;4974739;28;20189;-69
2023/05/17 09:32:23;;;;;;;16.83;8.18;;;;;;;14.08;nan;-24210.06;4975518;28;20239;-69
2023/05/17 09:34:55;;;;;;;14.95;7.53;;;;;;;14.29;nan;-24215.69;4974924;28;20256;-67
2023/05/17 09:37:20;;;;;;;15.10;8.13;;;;;;;14.21;nan;-24213.56;4975299;28;20200;-66
2023/05/17 09:39:47;;;;;;;18.77;8.15;;;;;;;14.33;nan;-24216.81;4974925;28;20169;-66
2023/05/17 09:42:14;;;;;;;15.35;7.68;;;;;;;13.90;nan;-24204.88;4974616;28;20224;-64
2023/05/17 09:44:56;;;;;;;14.23;7.55;;;;;;;14.21;nan;-24213.44;4974634;28;20185;-67
2023/05/17 09:47:25;;;;;;;15.00;7.82;;;;;;;14.49;nan;-24221.44;4974280;28;20172;-66
2023/05/17 09:49:51;;;;;;;17.20;7.90;;;;;;;14.19;nan;-24212.88;4974548;28;20200;-65
2023/05/17 09:52:20;;;;;;;16.40;7.55;;;;;;;14.59;nan;-24224.22;4974604;28;20174;-67
2023/05/17 09:54:56;;;;;;;15.98;8.60;;;;;;;14.60;nan;-24224.38;4973017;28;20701;-63
2023/05/17 09:57:24;;;;;;;17.27;8.30;;;;;;;14.37;nan;-24217.94;4974320;28;20177;-63
2023/05/17 09:59:50;;;;;;;21.08;10.55;;;;;;;14.42;nan;-24219.31;4973344;28;20166;-65
2023/05/17 10:02:23;;;;;;;17.00;9.45;;;;;;;14.62;nan;-24224.94;4973978;28;20189;-67
2023/05/17 10:04:50;;;;;;;17.17;8.93;;;;;;;14.55;nan;-24222.97;4974464;28;20577;-69
2023/05/17 10:07:19;;;;;;;19.42;9.95;;;;;;;14.07;nan;-24209.78;4973530;28;20625;-67
2023/05/17 10:09:51;;;;;;;17.60;8.77;;;;;;;14.37;nan;-24218.06;4974948;28;20201;-64
2023/05/17 10:12:18;;;;;;;17.35;9.60;;;;;;;14.43;nan;-24219.59;4977513;28;20271;-66
2023/05/17 10:14:44;;;;;;;18.15;9.85;;;;;;;14.27;nan;-24215.13;4994317;28;20208;-66
2023/05/17 10:17:10;;;;;;;20.13;9.65;;;;;;;14.64;nan;-24225.50;4994107;28;20707;-67
2023/05/17 10:19:36;;;;;;;22.10;10.10;;;;;;;14.48;nan;-24221.16;4993625;28;20184;-65
2023/05/17 10:22:02;;;;;;;19.77;10.18;;;;;;;14.91;nan;-24233.06;4993716;28;20173;-68
2023/05/17 10:24:29;;;;;;;20.58;11.25;;;;;;;14.73;nan;-24228.03;4995340;28;20723;-65
2023/05/17 10:26:56;;;;;;;20.42;11.00;;;;;;;15.11;nan;-24238.53;4993688;28;20308;-68
2023/05/17 10:29:22;;;;;;;19.85;10.80;;;;;;;15.01;nan;-24235.88;4993550;28;20243;-66
2023/05/17 10:31:49;;;;;;;25.83;11.27;;;;;;;15.30;nan;-24243.84;4993705;28;20181;-65
2023/05/17 10:34:16;;;;;;;18.67;10.27;;;;;;;15.60;nan;-24251.97;4994101;28;20509;-65
2023/05/17 10:36:45;;;;;;;19.50;9.93;;;;;;;15.62;nan;-24252.53;4993882;28;20181;-68
2023/05/17 10:39:11;;;;;;;16.73;8.68;;;;;;;15.58;nan;-24251.41;4993617;28;20173;-65
2023/05/17 10:41:42;;;;;;;16.08;9.13;;;;;;;15.62;nan;-24252.69;4975992;28;20176;-68
2023/05/17 10:44:12;;;;;;;15.15;8.52;;;;;;;15.76;nan;-24256.47;4993344;28;20161;-65
2023/05/17 10:46:38;;;;;;;16.77;8.82;;;;;;;15.62;nan;-24252.53;4993603;28;20647;-66
2023/05/17 10:49:07;;;;;;;17.98;8.63;;;;;;;15.80;nan;-24257.56;4993732;28;20177;-67
2023/05/17 10:51:34;;;;;;;17.67;8.85;;;;;;;15.88;nan;-24259.81;4992855;28;20604;-66
2023/05/17 10:54:10;;;;;;;20.77;8.27;;;;;;;16.02;nan;-24263.59;4993394;28;20248;-65
2023/05/17 10:57:05;;;;;;;16.55;9.23;;;;;;;16.05;nan;-24264.56;4993386;28;20176;-69
2023/05/17 10:59:32;;;;;;;14.95;8.35;;;;;;;15.83;nan;-24258.56;4991700;28;20631;-70
2023/05/17 11:02:08;;;;;;;16.48;8.25;;;;;;;15.77;nan;-24256.72;4993872;28;20184;-67
2023/05/17 11:04:37;;;;;;;14.23;8.45;;;;;;;16.19;nan;-24268.34;4992707;28;20647;-66
2023/05/17 11:09:54;;;;;;;18.08;9.23;;;;;;;16.15;nan;-24267.22;4992625;28;20219;-66
2023/05/17 11:12:48;;;;;;;14.35;8.73;;;;;;;16.06;nan;-24264.72;4992701;28;20227;-69
2023/05/17 11:15:15;;;;;;;16.45;9.07;;;;;;;15.91;nan;-24260.66;4992663;28;20549;-66
2023/05/17 11:17:49;;;;;;;18.33;8.77;;;;;;;16.13;nan;-24266.66;4992389;28;20180;-67
2023/05/17 11:20:15;;;;;;;19.50;9.38;;;;;;;16.20;nan;-24268.63;4992772;28;20161;-65
2023/05/17 11:22:57;;;;;;;18.63;9.55;;;;;;;16.14;nan;-24266.94;4993026;28;20264;-66
2023/05/17 11:25:23;;;;;;;15.82;8.55;;;;;;;16.25;nan;-24270.03;4993008;28;20712;-69
2023/05/17 11:27:51;;;;;;;17.83;9.35;;;;;;;16.20;nan;-24268.63;4992302;28;20219;-65
2023/05/17 11:30:29;;;;;;;18.05;9.27;;;;;;;15.90;nan;-24260.38;4992095;28;20578;-67
2023/05/17 11:32:59;;;;;;;17.58;9.15;;;;;;;16.20;nan;-24268.63;4992526;28;20169;-66
2023/05/17 11:35:31;;;;;;;20.17;10.27;;;;;;;15.96;nan;-24262.06;4974512;28;20639;-65
2023/05/17 11:38:20;;;;;;;16.13;9.10;;;;;;;16.29;nan;-24271.28;4992271;28;20169;-68
2023/05/17 11:40:49;;;;;;;16.55;8.77;;;;;;;16.15;nan;-24267.38;4991849;28;20263;-66
2023/05/17 11:43:21;;;;;;;17.70;8.98;;;;;;;16.13;nan;-24266.66;4991712;28;20635;-68
2023/05/17 11:45:51;;;;;;;15.68;9.15;;;;;;;16.02;nan;-24263.72;4991757;28;20216;-65
2023/05/17 11:48:19;;;;;;;20.10;9.85;;;;;;;16.27;nan;-24270.72;4992001;28;20181;-68
2023/05/17 11:50:46;;;;;;;17.20;9.20;;;;;;;16.20;nan;-24268.63;4991888;28;20631;-67
2023/05/17 11:53:13;;;;;;;15.45;8.43;;;;;;;15.89;nan;-24260.22;4991789;28;20195;-67
2023/05/17 11:55:44;;;;;;;13.57;8.30;;;;;;;16.22;nan;-24269.19;4992144;28;20290;-67
2023/05/17 11:58:12;;;;;;;17.42;8.20;;;;;;;15.67;nan;-24254.06;4991951;28;20176;-70
2023/05/17 12:00:42;;;;;;;24.25;9.98;;;;;;;15.63;nan;-24252.94;4992380;28;20603;-66
2023/05/17 12:03:21;;;;;;;19.73;9.30;;;;;;;15.77;nan;-24256.88;4991980;28;20631;-67
2023/05/17 12:05:50;;;;;;;17.48;9.55;;;;;;;15.49;nan;-24249.16;4991846;28;20255;-64
2023/05/17 12:08:20;;;;;;;22.08;10.20;;;;;;;15.59;nan;-24251.84;4992050;28;20234;-68
2023/05/17 12:10:49;;;;;;;21.40;10.38;;;;;;;15.80;nan;-24257.72;4991717;28;20204;-66
2023/05/17 12:13:15;;;;;;;17.60;9.27;;;;;;;15.78;nan;-24257.00;4991495;28;20240;-66
2023/05/17 12:15:44;;;;;;;18.40;9.15;;;;;;;15.57;nan;-24251.13;4991690;28;20250;-67
2023/05/17 12:18:10;;;;;;;19.65;9.13;;;;;;;15.79;nan;-24257.28;4991910;28;20183;-68
2023/05/17 12:20:37;;;;;;;18.05;9.27;;;;;;;15.55;nan;-24250.72;4991740;28;20260;-68
2023/05/17 12:23:03;;;;;;;20.42;10.02;;;;;;;15.86;nan;-24259.25;4991662;28;20173;-66
2023/05/17 12:25:28;;;;;;;18.33;9.60;;;;;;;15.51;nan;-24249.47;4992690;28;20199;-69
2023/05/17 12:28:20;;;;;;;18.88;10.23;;;;;;;15.70;nan;-24254.91;4991942;28;20577;-64
2023/05/17 12:30:52;;;;;;;19.67;9.38;;;;;;;15.71;nan;-24255.06;4993441;28;20196;-67
2023/05/17 12:33:17;;;;;;;19.42;9.93;;;;;;;15.86;nan;-24259.38;4978160;28;20632;-66
2023/05/17 12:35:43;;;;;;;16.45;8.38;;;;;;;15.63;nan;-24252.94;4995815;28;20244;-66
2023/05/17 12:38:10;;;;;;;23.10;10.00;;;;;;;15.76;nan;-24256.47;4994972;28;20185;-67
2023/05/17 12:40:36;;;;;;;17.48;9.07;;;;;;;15.95;nan;-24261.63;4995470;28;20180;-67
2023/05/17 12:43:05;;;;;;;17.30;9.82;;;;;;;16.10;nan;-24265.81;4995767;28;20180;-67
2023/05/17 12:45:30;;;;;;;18.63;9.00;;;;;;;16.30;nan;-24271.41;4995539;28;20172;-66
2023/05/17 12:47:58;;;;;;;20.13;9.10;;;;;;;16.33;nan;-24272.41;4995338;28;20169;-67
2023/05/17 12:50:29;;;;;;;14.10;8.15;;;;;;;16.20;nan;-24268.63;4995031;28;20205;-65
2023/05/17 12:52:54;;;;;;;16.58;8.88;;;;;;;16.01;nan;-24263.31;4995249;28;20593;-66
2023/05/17 12:55:20;;;;;;;21.35;9.32;;;;;;;15.63;nan;-24252.94;4995365;28;20255;-70
2023/05/17 12:57:50;;;;;;;17.38;8.35;;;;;;;15.77;nan;-24256.72;4995183;28;20175;-67
2023/05/17 13:00:16;;;;;;;17.55;8.77;;;;;;;16.04;nan;-24264.28;4995053;28;20590;-68
2023/05/17 13:02:41;;;;;;;16.30;7.97;;;;;;;15.75;nan;-24256.31;4994448;28;20177;-66
2023/05/17 13:05:17;;;;;;;18.52;8.50;;;;;;;15.38;nan;-24245.94;4994987;28;20177;-71
2023/05/17 13:07:45;;;;;;;19.33;8.95;;;;;;;15.21;nan;-24241.19;4995196;28;20164;-68
2023/05/17 13:10:20;;;;;;;13.05;7.15;;;;;;;15.52;nan;-24249.88;4994817;28;20232;-69
2023/05/17 13:12:59;;;;;;;15.57;8.27;;;;;;;15.48;nan;-24248.91;4994915;28;20227;-67
2023/05/17 13:15:32;;;;;;;18.58;9.45;;;;;;;15.90;nan;-24260.50;4994906;28;20627;-70
2023/05/17 13:17:58;;;;;;;16.27;8.95;;;;;;;15.51;nan;-24249.59;4994629;28;20604;-66
2023/05/17 13:20:25;;;;;;;22.17;10.55;;;;;;;15.94;nan;-24261.50;4994419;28;20252;-69
2023/05/17 13:22:51;;;;;;;20.70;9.98;;;;;;;15.82;nan;-24258.13;4994577;28;20239;-66
2023/05/17 13:25:17;;;;;;;18.42;9.20;;;;;;;15.94;nan;-24261.50;4994797;28;20157;-68
2023/05/17 13:27:47;;;;;;;23.77;10.13;;;;;;;15.96;nan;-24262.06;4978097;28;20556;-64
2023/05/17 13:30:13;;;;;;;20.63;9.68;;;;;;;15.84;nan;-24258.69;4994683;28;20683;-65
2023/05/17 13:32:39;;;;;;;26.20;13.45;;;;;;;15.62;nan;-24252.69;4994576;28;20647;-67
2023/05/17 13:35:05;;;;;;;47.25;24.95;;;;;;;15.70;nan;-24254.91;4994732;28;20167;-66
2023/05/17 13:37:30;;;;;;;50.38;23.98;;;;;;;15.62;nan;-24252.53;4994182;28;20224;-65
2023/05/17 13:39:56;;;;;;;63.53;33.75;;;;;;;15.84;nan;-24258.69;4994259;28;20624;-69
2023/05/17 13:42:22;;;;;;;71.15;34.30;;;;;;;15.73;nan;-24255.63;4994041;28;20203;-56
2023/05/17 13:44:48;;;;;;;57.97;30.13;;;;;;;15.87;nan;-24259.66;4993669;28;20729;-55
2023/05/17 13:47:16;;;;;;;48.67;25.15;;;;;;;15.90;nan;-24260.50;4994508;28;20169;-56
2023/05/17 13:49:42;;;;;;;50.13;25.23;;;;;;;15.97;nan;-24262.31;4976603;28;20283;-55
2023/05/17 13:52:07;;;;;;;43.78;22.35;;;;;;;16.19;nan;-24268.34;4993730;28;20644;-57
2023/05/17 13:54:33;;;;;;;43.88;20.33;;;;;;;15.91;nan;-24260.78;4993356;28;20184;-57
2023/05/17 13:56:59;;;;;;;33.30;17.27;;;;;;;15.85;nan;-24259.13;4992369;28;20177;-56
2023/05/17 13:59:25;;;;;;;34.42;15.52;;;;;;;16.18;nan;-24268.22;4993269;28;20208;-56
2023/05/17 14:01:50;;;;;;;32.65;15.55;;;;;;;15.94;nan;-24261.34;4994123;28;20239;-55
2023/05/17 14:04:16;;;;;;;33.00;15.75;;;;;;;15.86;nan;-24259.38;4993874;28;20177;-55
2023/05/17 14:06:41;;;;;;;27.02;12.98;;;;;;;15.95;nan;-24261.63;4995271;28;20177;-57
2023/05/17 14:09:06;;;;;;;23.23;11.60;;;;;;;16.01;nan;-24263.44;4993863;28;20181;-56
2023/05/17 14:11:33;;;;;;;19.77;10.40;;;;;;;15.71;nan;-24255.06;4992911;28;20286;-55
2023/05/17 14:13:59;;;;;;;24.23;10.95;;;;;;;15.98;nan;-24262.47;4993521;28;20232;-55
2023/05/17 14:16:25;;;;;;;20.42;9.95;;;;;;;15.85;nan;-24258.97;4993597;28;20177;-55
2023/05/17 14:18:52;;;;;;;21.08;10.20;;;;;;;15.85;nan;-24259.13;4993837;28;20184;-57
2023/05/17 14:21:17;;;;;;;21.65;10.13;;;;;;;15.83;nan;-24258.41;4993344;28;20259;-55
2023/05/17 14:23:42;;;;;;;19.00;9.52;;;;;;;15.64;nan;-24253.09;4993074;28;20691;-54
2023/05/17 14:26:08;;;;;;;21.67;10.10;;;;;;;15.64;nan;-24253.09;4993898;28;20235;-54
2023/05/17 14:28:36;;;;;;;17.58;9.35;;;;;;;16.17;nan;-24267.94;4993538;28;20176;-54
2023/05/17 14:31:02;;;;;;;18.10;9.05;;;;;;;16.09;nan;-24265.69;4993355;28;20200;-56
2023/05/17 14:33:28;;;;;;;20.40;9.75;;;;;;;16.02;nan;-24263.59;4993121;28;20177;-56
2023/05/17 14:35:53;;;;;;;16.55;9.35;;;;;;;15.94;nan;-24261.34;4992951;28;20199;-56
2023/05/17 14:38:21;;;;;;;19.77;9.80;;;;;;;15.94;nan;-24261.34;4993304;28;20194;-57
2023/05/17 14:40:46;;;;;;;20.02;9.80;;;;;;;15.89;nan;-24260.22;4993224;28;20181;-56
2023/05/17 14:43:12;;;;;;;19.20;10.00;;;;;;;15.67;nan;-24254.06;4992659;28;20161;-55
2023/05/17 14:45:38;;;;;;;23.42;10.85;;;;;;;15.82;nan;-24258.13;4991752;28;20655;-55
2023/05/17 14:48:04;;;;;;;20.63;10.48;;;;;;;15.50;nan;-24249.31;4993216;28;20184;-55
2023/05/17 14:50:31;;;;;;;18.70;9.65;;;;;;;15.46;nan;-24248.34;4993232;28;20259;-55
2023/05/17 14:52:57;;;;;;;23.02;11.52;;;;;;;15.73;nan;-24255.63;4992878;28;20640;-55
2023/05/17 14:55:25;;;;;;;24.20;10.55;;;;;;;15.88;nan;-24259.94;4993529;28;20235;-54
2023/05/17 14:57:52;;;;;;;19.77;10.52;;;;;;;15.64;nan;-24253.22;4975823;28;20740;-56
2023/05/17 15:00:18;;;;;;;18.80;10.02;;;;;;;15.81;nan;-24257.84;4993193;28;20181;-56
2023/05/17 15:02:44;;;;;;;19.90;9.82;;;;;;;15.75;nan;-24256.31;4975454;28;20303;-57
2023/05/17 15:05:10;;;;;;;18.92;9.80;;;;;;;15.85;nan;-24258.97;4992269;28;20232;-55
2023/05/17 15:07:36;;;;;;;22.10;9.95;;;;;;;16.03;nan;-24264.00;4991639;28;20623;-54
2023/05/17 15:10:05;;;;;;;20.85;10.88;;;;;;;16.13;nan;-24266.66;4996552;28;20213;-55
2023/05/17 15:12:31;;;;;;;20.63;10.40;;;;;;;15.69;nan;-24254.63;4992529;28;20228;-54
2023/05/17 15:14:57;;;;;;;19.23;10.52;;;;;;;16.07;nan;-24265.00;4992720;28;20658;-55
2023/05/17 15:17:23;;;;;;;20.58;9.65;;;;;;;16.39;nan;-24273.94;4992161;28;20200;-56
2023/05/17 15:19:50;;;;;;;18.15;9.02;;;;;;;16.30;nan;-24271.41;4992269;28;20200;-55
2023/05/17 15:22:15;;;;;;;21.73;9.80;;;;;;;16.51;nan;-24277.28;4992294;28;20188;-56
2023/05/17 15:24:41;;;;;;;17.75;9.45;;;;;;;16.51;nan;-24277.28;4992554;28;20200;-56
2023/05/17 15:27:06;;;;;;;17.38;9.18;;;;;;;16.51;nan;-24277.28;4992359;28;20180;-54
2023/05/17 15:29:32;;;;;;;16.90;9.10;;;;;;;16.23;nan;-24269.47;4991860;28;20193;-55
2023/05/17 15:31:58;;;;;;;16.83;8.45;;;;;;;16.12;nan;-24266.38;4992007;28;20187;-55
2023/05/17 15:34:25;;;;;;;20.70;8.63;;;;;;;16.42;nan;-24274.78;4992096;28;20284;-55
2023/05/17 15:36:54;;;;;;;18.08;9.20;;;;;;;16.11;nan;-24266.09;4992347;28;20169;-54
2023/05/17 15:39:20;;;;;;;15.20;8.50;;;;;;;16.29;nan;-24271.13;4992289;28;20227;-53
2023/05/17 15:41:46;;;;;;;15.98;8.65;;;;;;;16.27;nan;-24270.72;4992172;28;20212;-56
2023/05/17 15:44:11;;;;;;;19.17;8.75;;;;;;;15.84;nan;-24258.84;4992322;28;20666;-55
2023/05/17 15:46:38;;;;;;;16.13;8.02;;;;;;;16.13;nan;-24266.66;4991905;28;20171;-56
2023/05/17 15:49:03;;;;;;;15.43;8.05;;;;;;;16.23;nan;-24269.59;4992072;28;20231;-56
2023/05/17 15:51:28;;;;;;;15.38;8.27;;;;;;;15.95;nan;-24261.78;4991819;28;20177;-56
2023/05/17 15:53:54;;;;;;;15.27;8.43;;;;;;;16.17;nan;-24267.94;4991764;28;20172;-55
2023/05/17 15:56:22;;;;;;;16.00;8.82;;;;;;;15.75;nan;-24256.19;4992088;28;20177;-55
2023/05/17 15:58:48;;;;;;;15.93;8.18;;;;;;;15.63;nan;-24252.94;4992004;28;20320;-56
2023/05/17 16:01:13;;;;;;;14.07;8.13;;;;;;;15.64;nan;-24253.22;4991547;28;20266;-56
2023/05/17 16:03:39;;;;;;;18.27;8.35;;;;;;;15.55;nan;-24250.56;4992424;28;20189;-55
2023/05/17 16:06:05;;;;;;;17.13;9.38;;;;;;;15.70;nan;-24254.78;4996118;28;20595;-57
2023/05/17 16:08:31;;;;;;;15.32;8.55;;;;;;;15.60;nan;-24252.13;4996288;28;20177;-56
2023/05/17 16:10:56;;;;;;;14.95;8.05;;;;;;;15.53;nan;-24250.16;4996155;28;20188;-54